Time;durP1;ratioP1;P1;durP2;ratioP2;P2;SDS_P1;SDS_P2;PMS_P1;PMS_P2;Temp;Humidity;BMP_temperature;BMP_pressure;BME280_temperature;BME280_humidity;BME280_pressure;Samples;Min_cycle;Max_cycle;Signal;HPM_P1;HPM_P2
2022/11/08 00:01:33;;;;;;;5.82;1.85;;;;;;;;;;5101226;28;20044;-72
2022/11/08 00:04:13;;;;;;;9.70;2.20;;;;;;;;;;5102701;28;20571;-71
2022/11/08 00:14:55;;;;;;;8.70;2.00;;;;;;;;;;5095270;28;20074;-72
2022/11/08 00:17:22;;;;;;;8.85;2.10;;;;;;;;;;5102316;28;20052;-73
2022/11/08 00:19:49;;;;;;;9.10;2.60;;;;;;;;;;5097840;28;20143;-73
2022/11/08 00:22:16;;;;;;;5.82;2.60;;;;;;;;;;5097592;28;20421;-70
2022/11/08 00:24:42;;;;;;;12.05;2.40;;;;;;;;;;5102468;27;20425;-68
2022/11/08 00:27:10;;;;;;;12.25;2.92;;;;;;;;;;5102057;27;20140;-71
2022/11/08 00:29:37;;;;;;;9.13;2.40;;;;;;;;;;5101817;28;20075;-70
2022/11/08 00:32:05;;;;;;;5.32;2.00;;;;;;;;;;5101320;28;20135;-68
2022/11/08 00:34:32;;;;;;;14.05;2.88;;;;;;;;;;5100525;28;20138;-72
2022/11/08 00:36:58;;;;;;;4.82;2.45;;;;;;;;;;5098903;28;20135;-72
2022/11/08 00:39:25;;;;;;;6.38;1.98;;;;;;;;;;5101619;28;20171;-72
2022/11/08 00:41:51;;;;;;;7.25;2.42;;;;;;;;;;5102082;28;20076;-71
2022/11/08 00:44:18;;;;;;;6.45;2.15;;;;;;;;;;5101626;27;20131;-72
2022/11/08 00:46:44;;;;;;;8.63;2.30;;;;;;;;;;5101949;28;20044;-72
2022/11/08 00:49:10;;;;;;;6.55;1.80;;;;;;;;;;5099925;28;20054;-70
2022/11/08 00:51:37;;;;;;;8.35;2.33;;;;;;;;;;5104317;28;20488;-71
2022/11/08 00:54:04;;;;;;;11.02;2.33;;;;;;;;;;5101646;28;20811;-72
2022/11/08 00:56:32;;;;;;;5.55;2.25;;;;;;;;;;5099673;28;20052;-72
2022/11/08 00:58:58;;;;;;;7.53;2.50;;;;;;;;;;5101108;27;20162;-72
2022/11/08 01:01:25;;;;;;;9.23;2.45;;;;;;;;;;5099116;28;20602;-70
2022/11/08 01:03:52;;;;;;;7.18;2.13;;;;;;;;;;5100658;27;20129;-72
2022/11/08 01:06:19;;;;;;;8.52;1.83;;;;;;;;;;5102566;28;20052;-71
2022/11/08 01:08:46;;;;;;;7.00;3.42;;;;;;;;;;5101793;28;20056;-72
2022/11/08 01:11:14;;;;;;;8.70;2.35;;;;;;;;;;5100252;28;20538;-68
2022/11/08 01:13:40;;;;;;;10.50;2.40;;;;;;;;;;5101288;28;20058;-70
2022/11/08 01:16:08;;;;;;;7.47;2.88;;;;;;;;;;5098584;27;20541;-72
2022/11/08 01:18:35;;;;;;;7.43;2.05;;;;;;;;;;5101428;28;20533;-72
2022/11/08 01:21:02;;;;;;;4.97;2.13;;;;;;;;;;5102610;28;20048;-71
2022/11/08 01:23:28;;;;;;;11.05;2.10;;;;;;;;;;5099383;28;20044;-71
2022/11/08 01:25:55;;;;;;;9.63;2.20;;;;;;;;;;5099234;28;20056;-68
2022/11/08 01:28:21;;;;;;;9.05;2.25;;;;;;;;;;5100348;27;20518;-69
2022/11/08 01:30:47;;;;;;;5.97;2.05;;;;;;;;;;5099238;28;20552;-71
2022/11/08 01:33:14;;;;;;;4.70;1.65;;;;;;;;;;5101167;28;20055;-68
2022/11/08 01:35:44;;;;;;;4.55;2.40;;;;;;;;;;5100716;28;20095;-67
2022/11/08 01:38:10;;;;;;;6.45;1.98;;;;;;;;;;5101423;28;20044;-70
2022/11/08 01:40:43;;;;;;;4.28;1.98;;;;;;;;;;5097131;28;20060;-72
2022/11/08 01:43:25;;;;;;;6.00;2.38;;;;;;;;;;5097047;28;20060;-72
2022/11/08 01:46:09;;;;;;;6.35;1.90;;;;;;;;;;5101055;28;20059;-70
2022/11/08 01:48:38;;;;;;;10.32;2.60;;;;;;;;;;5100322;27;20056;-73
2022/11/08 01:51:06;;;;;;;7.82;2.08;;;;;;;;;;5100768;28;20055;-71
2022/11/08 01:53:32;;;;;;;6.05;1.95;;;;;;;;;;5101679;28;20052;-72
2022/11/08 01:55:59;;;;;;;12.23;2.30;;;;;;;;;;5099181;27;20133;-71
2022/11/08 01:58:26;;;;;;;9.00;2.25;;;;;;;;;;5097391;27;20044;-72
2022/11/08 02:00:53;;;;;;;6.70;2.10;;;;;;;;;;5098059;28;20429;-72
2022/11/08 02:03:19;;;;;;;10.15;2.50;;;;;;;;;;5100668;28;20056;-72
2022/11/08 02:05:46;;;;;;;7.57;2.15;;;;;;;;;;5098705;27;20434;-72
2022/11/08 02:08:32;;;;;;;8.77;2.95;;;;;;;;;;5100010;27;20060;-69
2022/11/08 02:10:59;;;;;;;7.68;2.42;;;;;;;;;;5099869;28;20556;-72
2022/11/08 02:13:26;;;;;;;6.25;2.83;;;;;;;;;;5099815;28;20048;-69
2022/11/08 02:15:53;;;;;;;8.55;2.40;;;;;;;;;;5098752;28;20044;-70
2022/11/08 02:18:21;;;;;;;4.70;2.47;;;;;;;;;;5093235;28;20060;-72
2022/11/08 02:21:04;;;;;;;9.85;2.17;;;;;;;;;;5099650;28;20056;-70
2022/11/08 02:23:43;;;;;;;10.25;2.42;;;;;;;;;;5100048;28;20052;-73
2022/11/08 02:26:09;;;;;;;6.80;2.47;;;;;;;;;;5100146;27;20056;-72
2022/11/08 02:28:39;;;;;;;3.67;2.40;;;;;;;;;;5100637;28;20052;-71
2022/11/08 02:31:13;;;;;;;4.10;2.20;;;;;;;;;;5101206;28;20134;-73
2022/11/08 02:33:40;;;;;;;5.43;2.53;;;;;;;;;;5103032;28;20051;-72
2022/11/08 02:36:08;;;;;;;6.72;2.22;;;;;;;;;;5083799;28;20054;-73
2022/11/08 02:38:37;;;;;;;7.90;2.10;;;;;;;;;;5102455;28;20140;-70
2022/11/08 02:41:04;;;;;;;9.02;2.30;;;;;;;;;;5096470;28;20133;-70
2022/11/08 02:43:30;;;;;;;8.57;2.60;;;;;;;;;;5103913;28;20177;-70
2022/11/08 02:45:57;;;;;;;8.07;2.50;;;;;;;;;;5102047;28;20486;-72
2022/11/08 02:48:24;;;;;;;6.20;2.20;;;;;;;;;;5102359;27;20540;-71
2022/11/08 02:50:51;;;;;;;5.78;2.65;;;;;;;;;;5100358;28;20059;-72
2022/11/08 02:53:17;;;;;;;9.77;2.67;;;;;;;;;;5101967;28;20487;-70
2022/11/08 02:55:43;;;;;;;7.68;2.17;;;;;;;;;;5103701;28;20519;-72
2022/11/08 02:58:10;;;;;;;10.07;3.25;;;;;;;;;;5095502;28;20057;-73
2022/11/08 03:00:37;;;;;;;10.20;2.60;;;;;;;;;;5100328;28;20532;-70
2022/11/08 03:03:04;;;;;;;9.30;3.45;;;;;;;;;;5102498;28;20476;-72
2022/11/08 03:05:30;;;;;;;5.15;2.47;;;;;;;;;;5102797;28;20105;-73
2022/11/08 03:07:56;;;;;;;9.73;2.25;;;;;;;;;;5103290;27;20056;-74
2022/11/08 03:10:24;;;;;;;5.38;2.45;;;;;;;;;;5099617;28;20598;-73
2022/11/08 03:12:54;;;;;;;3.63;2.42;;;;;;;;;;5101786;28;20445;-73
2022/11/08 03:15:20;;;;;;;7.03;2.75;;;;;;;;;;5102806;28;20052;-72
2022/11/08 03:17:47;;;;;;;6.93;2.78;;;;;;;;;;5101778;28;20052;-72
2022/11/08 03:20:13;;;;;;;6.80;2.83;;;;;;;;;;5100867;28;20053;-71
2022/11/08 03:22:39;;;;;;;10.88;2.50;;;;;;;;;;5084498;28;20052;-70
2022/11/08 03:25:06;;;;;;;8.80;2.55;;;;;;;;;;5103431;28;20086;-70
2022/11/08 03:27:32;;;;;;;7.30;2.17;;;;;;;;;;5102304;28;20044;-70
2022/11/08 03:29:58;;;;;;;12.95;2.78;;;;;;;;;;5101324;27;20524;-70
2022/11/08 03:32:25;;;;;;;6.63;2.53;;;;;;;;;;5103732;28;20055;-70
2022/11/08 03:34:51;;;;;;;6.28;2.22;;;;;;;;;;5098789;28;20051;-72
2022/11/08 03:37:17;;;;;;;6.85;2.55;;;;;;;;;;5102914;28;20446;-73
2022/11/08 03:39:44;;;;;;;11.32;3.00;;;;;;;;;;5100939;27;20052;-72
2022/11/08 03:42:10;;;;;;;5.82;2.50;;;;;;;;;;5102453;28;20060;-70
2022/11/08 03:44:37;;;;;;;4.65;1.77;;;;;;;;;;5104121;28;20103;-73
2022/11/08 03:47:03;;;;;;;5.00;2.15;;;;;;;;;;5100866;28;20067;-69
2022/11/08 03:49:29;;;;;;;9.73;2.95;;;;;;;;;;5100202;28;20055;-72
2022/11/08 03:51:56;;;;;;;5.50;2.58;;;;;;;;;;5102904;28;20056;-72
2022/11/08 03:54:22;;;;;;;10.50;2.67;;;;;;;;;;5104072;28;20044;-72
2022/11/08 03:56:48;;;;;;;4.45;1.95;;;;;;;;;;5100428;27;20524;-72
2022/11/08 03:59:14;;;;;;;5.63;2.00;;;;;;;;;;5101031;28;20052;-71
2022/11/08 04:01:41;;;;;;;10.80;2.50;;;;;;;;;;5101313;28;20079;-71
2022/11/08 04:04:08;;;;;;;5.82;2.40;;;;;;;;;;5102369;28;20055;-71
2022/11/08 04:06:34;;;;;;;7.22;2.25;;;;;;;;;;5101604;28;20519;-72
2022/11/08 04:09:01;;;;;;;7.32;2.10;;;;;;;;;;5100980;28;20079;-72
2022/11/08 04:16:56;;;;;;;6.40;1.77;;;;;;;;;;5100187;27;20059;-71
2022/11/08 04:22:09;;;;;;;5.55;2.88;;;;;;;;;;5098162;28;20054;-73
2022/11/08 04:24:36;;;;;;;5.07;1.92;;;;;;;;;;5101667;28;20654;-72
2022/11/08 04:27:02;;;;;;;6.75;2.25;;;;;;;;;;5099657;28;20060;-72
2022/11/08 04:29:29;;;;;;;4.55;2.05;;;;;;;;;;5084231;28;20052;-73
2022/11/08 04:31:55;;;;;;;6.35;2.67;;;;;;;;;;5102100;28;20051;-72
2022/11/08 04:34:21;;;;;;;5.97;1.90;;;;;;;;;;5101028;28;20044;-72
2022/11/08 04:36:47;;;;;;;9.88;2.63;;;;;;;;;;5100793;27;20059;-71
2022/11/08 04:39:14;;;;;;;5.78;2.03;;;;;;;;;;5101066;28;20060;-70
2022/11/08 04:41:40;;;;;;;5.15;1.73;;;;;;;;;;5101767;28;20513;-70
2022/11/08 04:44:07;;;;;;;5.85;2.05;;;;;;;;;;5103465;28;20063;-72
2022/11/08 04:46:33;;;;;;;4.30;1.80;;;;;;;;;;5102036;28;20063;-72
2022/11/08 04:49:00;;;;;;;5.65;2.00;;;;;;;;;;5099067;28;20052;-72
2022/11/08 04:51:32;;;;;;;6.07;2.15;;;;;;;;;;5100934;27;20063;-72
2022/11/08 04:53:59;;;;;;;5.32;2.33;;;;;;;;;;5100682;28;20619;-70
2022/11/08 04:56:27;;;;;;;5.45;1.88;;;;;;;;;;5099997;28;20059;-73
2022/11/08 04:58:54;;;;;;;3.05;1.80;;;;;;;;;;5102291;28;20052;-73
2022/11/08 05:01:22;;;;;;;5.10;2.00;;;;;;;;;;5081481;28;20059;-72
2022/11/08 05:03:50;;;;;;;3.03;2.17;;;;;;;;;;5098750;28;20101;-72
2022/11/08 05:06:18;;;;;;;4.72;1.70;;;;;;;;;;5102268;28;20051;-72
2022/11/08 05:08:44;;;;;;;3.70;1.80;;;;;;;;;;5102325;28;20593;-71
2022/11/08 05:11:21;;;;;;;6.47;1.95;;;;;;;;;;5101698;27;20059;-71
2022/11/08 05:13:48;;;;;;;8.93;2.45;;;;;;;;;;5100862;28;20702;-72
2022/11/08 05:16:19;;;;;;;4.97;1.83;;;;;;;;;;5100893;28;20060;-73
2022/11/08 05:18:45;;;;;;;3.15;1.75;;;;;;;;;;5094824;28;20048;-70
2022/11/08 05:23:58;;;;;;;6.15;2.22;;;;;;;;;;5091625;28;20048;-72
2022/11/08 05:26:24;;;;;;;4.65;1.80;;;;;;;;;;5099354;28;20048;-70
2022/11/08 05:28:51;;;;;;;2.72;1.52;;;;;;;;;;5098936;28;20488;-71
2022/11/08 05:31:17;;;;;;;3.60;1.83;;;;;;;;;;5100517;28;20529;-70
2022/11/08 05:33:43;;;;;;;6.22;1.90;;;;;;;;;;5097585;28;20071;-71
2022/11/08 05:36:12;;;;;;;4.38;2.03;;;;;;;;;;5102823;28;20048;-71
2022/11/08 05:38:39;;;;;;;3.70;1.45;;;;;;;;;;5102353;28;20433;-68
2022/11/08 05:41:06;;;;;;;3.83;2.30;;;;;;;;;;5102172;28;20440;-71
2022/11/08 05:43:33;;;;;;;6.00;2.20;;;;;;;;;;5101399;28;20056;-71
2022/11/08 05:45:59;;;;;;;7.07;2.20;;;;;;;;;;5100737;28;20048;-70
2022/11/08 05:48:26;;;;;;;3.60;1.95;;;;;;;;;;5079410;28;20063;-70
2022/11/08 05:50:52;;;;;;;4.28;1.65;;;;;;;;;;5101955;28;20048;-73
2022/11/08 05:53:19;;;;;;;7.97;2.00;;;;;;;;;;5101500;28;20437;-72
2022/11/08 05:55:46;;;;;;;3.65;1.92;;;;;;;;;;5098079;28;20052;-70
2022/11/08 05:58:12;;;;;;;8.40;2.10;;;;;;;;;;5101420;28;20469;-71
2022/11/08 06:00:38;;;;;;;6.07;1.85;;;;;;;;;;5099269;28;20079;-72
2022/11/08 06:03:05;;;;;;;2.70;1.67;;;;;;;;;;5101248;28;20098;-72
2022/11/08 06:05:32;;;;;;;3.80;2.00;;;;;;;;;;5100261;28;20051;-72
2022/11/08 06:07:59;;;;;;;4.65;1.80;;;;;;;;;;5100193;27;20448;-71
2022/11/08 06:10:25;;;;;;;8.85;1.70;;;;;;;;;;5101691;28;20059;-70
2022/11/08 06:12:52;;;;;;;3.65;1.77;;;;;;;;;;5100614;27;20106;-71
2022/11/08 06:15:18;;;;;;;3.88;1.63;;;;;;;;;;5079321;28;20055;-70
2022/11/08 06:17:45;;;;;;;4.72;1.58;;;;;;;;;;5069765;28;20042;-72
2022/11/08 06:20:14;;;;;;;5.00;1.95;;;;;;;;;;5101855;28;20056;-69
2022/11/08 06:22:42;;;;;;;3.22;1.75;;;;;;;;;;5097626;28;20502;-69
2022/11/08 06:25:09;;;;;;;10.38;2.00;;;;;;;;;;5095674;28;20136;-73
2022/11/08 06:27:36;;;;;;;4.68;1.58;;;;;;;;;;5100991;28;20250;-72
2022/11/08 06:30:03;;;;;;;4.30;1.58;;;;;;;;;;5086296;28;20044;-71
2022/11/08 06:32:29;;;;;;;5.07;2.20;;;;;;;;;;5095701;28;20048;-71
2022/11/08 06:34:56;;;;;;;6.25;1.83;;;;;;;;;;5098138;28;20074;-71
2022/11/08 06:37:22;;;;;;;4.63;2.17;;;;;;;;;;5101740;28;20105;-72
2022/11/08 06:39:48;;;;;;;3.55;1.63;;;;;;;;;;5099224;28;20525;-70
2022/11/08 06:42:14;;;;;;;5.18;2.05;;;;;;;;;;5087858;28;20063;-71
2022/11/08 06:44:41;;;;;;;3.85;2.13;;;;;;;;;;5100954;28;20086;-68
2022/11/08 06:47:07;;;;;;;7.57;1.95;;;;;;;;;;5100389;28;20094;-71
2022/11/08 06:49:35;;;;;;;5.80;2.22;;;;;;;;;;5088306;28;20052;-67
2022/11/08 06:52:02;;;;;;;6.82;1.90;;;;;;;;;;5095823;27;20052;-71
2022/11/08 06:54:29;;;;;;;4.97;1.90;;;;;;;;;;5090263;28;20054;-72
2022/11/08 06:56:59;;;;;;;2.53;1.75;;;;;;;;;;5099889;28;20052;-71
2022/11/08 06:59:26;;;;;;;6.85;1.92;;;;;;;;;;5099738;28;20051;-68
2022/11/08 07:01:52;;;;;;;6.00;2.20;;;;;;;;;;5084513;28;20048;-71
2022/11/08 07:04:19;;;;;;;2.28;1.50;;;;;;;;;;5100647;28;20498;-70
2022/11/08 07:06:45;;;;;;;2.97;1.63;;;;;;;;;;5098926;28;20522;-71
2022/11/08 07:09:12;;;;;;;7.07;2.33;;;;;;;;;;5098563;28;20048;-69
2022/11/08 07:11:39;;;;;;;4.28;1.90;;;;;;;;;;5081648;28;20056;-69
2022/11/08 07:14:05;;;;;;;4.38;1.85;;;;;;;;;;5100323;27;20051;-71
2022/11/08 07:16:31;;;;;;;4.60;1.83;;;;;;;;;;5097539;28;20513;-67
2022/11/08 07:18:58;;;;;;;5.35;1.65;;;;;;;;;;5087323;28;20052;-70
2022/11/08 07:21:24;;;;;;;3.08;2.00;;;;;;;;;;5102063;28;20044;-71
2022/11/08 07:23:50;;;;;;;3.88;1.63;;;;;;;;;;5099392;28;20052;-70
2022/11/08 07:26:17;;;;;;;4.50;1.50;;;;;;;;;;5102397;28;20044;-71
2022/11/08 07:28:43;;;;;;;2.92;1.70;;;;;;;;;;5087574;28;20524;-71
2022/11/08 07:31:09;;;;;;;4.07;1.95;;;;;;;;;;5101841;28;20052;-71
2022/11/08 07:33:36;;;;;;;5.78;1.77;;;;;;;;;;5098670;28;20091;-71
2022/11/08 07:36:02;;;;;;;4.88;2.00;;;;;;;;;;5083178;28;20466;-71
2022/11/08 07:38:29;;;;;;;4.97;2.33;;;;;;;;;;5101000;28;20055;-70
2022/11/08 07:40:56;;;;;;;3.70;1.80;;;;;;;;;;5100433;28;20051;-70
2022/11/08 07:43:23;;;;;;;6.03;2.22;;;;;;;;;;5101107;28;20063;-71
2022/11/08 07:45:55;;;;;;;3.63;1.85;;;;;;;;;;5100122;28;20152;-71
2022/11/08 07:48:21;;;;;;;5.22;2.03;;;;;;;;;;5101256;27;20048;-69
2022/11/08 07:50:48;;;;;;;6.00;2.35;;;;;;;;;;5103347;28;20052;-71
2022/11/08 07:53:15;;;;;;;5.35;1.92;;;;;;;;;;5098989;27;20583;-72
2022/11/08 07:55:44;;;;;;;14.73;2.50;;;;;;;;;;5097495;28;20059;-70
2022/11/08 07:58:13;;;;;;;3.50;1.77;;;;;;;;;;5103706;28;20051;-71
2022/11/08 08:00:40;;;;;;;3.05;1.73;;;;;;;;;;5100949;28;20054;-70
2022/11/08 08:03:08;;;;;;;4.63;1.90;;;;;;;;;;5100878;28;20056;-71
2022/11/08 08:05:36;;;;;;;5.35;2.00;;;;;;;;;;5102921;28;20052;-72
2022/11/08 08:08:02;;;;;;;8.45;2.00;;;;;;;;;;5101810;28;20040;-71
2022/11/08 08:10:29;;;;;;;3.15;1.92;;;;;;;;;;5100365;28;20163;-72
2022/11/08 08:12:56;;;;;;;4.13;1.95;;;;;;;;;;5102152;28;20159;-69
2022/11/08 08:15:23;;;;;;;3.88;1.58;;;;;;;;;;5103371;28;20054;-71
2022/11/08 08:17:49;;;;;;;3.65;1.58;;;;;;;;;;5100832;28;20056;-73
2022/11/08 08:20:15;;;;;;;2.88;1.50;;;;;;;;;;5102234;28;20593;-74
2022/11/08 08:22:45;;;;;;;4.80;1.63;;;;;;;;;;5102488;28;20109;-72
2022/11/08 08:25:12;;;;;;;4.95;1.50;;;;;;;;;;5089196;28;20251;-71
2022/11/08 08:27:39;;;;;;;2.60;1.33;;;;;;;;;;5094733;28;20047;-75
2022/11/08 08:30:06;;;;;;;6.78;1.95;;;;;;;;;;5093569;27;20053;-72
2022/11/08 08:32:33;;;;;;;3.28;1.63;;;;;;;;;;5101909;28;20052;-73
2022/11/08 08:34:59;;;;;;;4.68;1.77;;;;;;;;;;5103710;28;20505;-72
2022/11/08 08:37:25;;;;;;;5.22;1.95;;;;;;;;;;5099171;28;20055;-71
2022/11/08 08:39:51;;;;;;;2.10;1.58;;;;;;;;;;5089902;28;20083;-71
2022/11/08 08:42:18;;;;;;;3.85;1.90;;;;;;;;;;5099175;28;20847;-72
2022/11/08 08:44:44;;;;;;;3.72;1.40;;;;;;;;;;5095535;28;20087;-69
2022/11/08 08:47:10;;;;;;;3.88;1.88;;;;;;;;;;5098108;28;20110;-68
2022/11/08 08:49:37;;;;;;;2.63;1.77;;;;;;;;;;5082292;28;20056;-72
2022/11/08 08:52:03;;;;;;;2.85;1.50;;;;;;;;;;5093549;28;20554;-71
2022/11/08 08:54:29;;;;;;;2.90;1.23;;;;;;;;;;5101448;28;20056;-72
2022/11/08 08:56:56;;;;;;;2.97;1.83;;;;;;;;;;5100939;28;20048;-70
2022/11/08 08:59:22;;;;;;;2.08;1.20;;;;;;;;;;5101947;28;20056;-73
2022/11/08 09:02:09;;;;;;;4.50;1.98;;;;;;;;;;5101542;28;20104;-73
2022/11/08 09:04:36;;;;;;;4.07;1.83;;;;;;;;;;5093224;28;20522;-72
2022/11/08 09:07:02;;;;;;;3.60;1.60;;;;;;;;;;5092306;28;20048;-70
2022/11/08 09:09:28;;;;;;;3.88;1.80;;;;;;;;;;5102651;28;20052;-67
2022/11/08 09:11:55;;;;;;;3.75;1.60;;;;;;;;;;5097466;28;20521;-66
2022/11/08 09:14:21;;;;;;;3.65;1.92;;;;;;;;;;5092180;28;20524;-67
2022/11/08 09:16:47;;;;;;;1.67;1.15;;;;;;;;;;5089526;27;20059;-66
2022/11/08 09:19:13;;;;;;;2.17;1.30;;;;;;;;;;5092257;27;20595;-66
2022/11/08 09:21:40;;;;;;;3.22;1.70;;;;;;;;;;5098845;28;20591;-67
2022/11/08 09:24:07;;;;;;;2.97;1.67;;;;;;;;;;5098139;28;20052;-68
2022/11/08 09:26:33;;;;;;;3.85;1.52;;;;;;;;;;5103050;28;20056;-66
2022/11/08 09:29:00;;;;;;;3.35;1.90;;;;;;;;;;5100881;28;20509;-66
2022/11/08 09:31:26;;;;;;;4.47;1.67;;;;;;;;;;5087906;28;20054;-66
2022/11/08 09:33:52;;;;;;;3.88;1.70;;;;;;;;;;5099392;28;20093;-67
2022/11/08 09:36:19;;;;;;;1.88;1.52;;;;;;;;;;5099116;28;20056;-65
2022/11/08 09:38:45;;;;;;;2.78;1.70;;;;;;;;;;5099839;27;20048;-66
2022/11/08 09:41:24;;;;;;;3.38;1.50;;;;;;;;;;5096028;28;20066;-66
2022/11/08 09:43:57;;;;;;;5.03;1.83;;;;;;;;;;5100832;28;20059;-66
2022/11/08 09:46:27;;;;;;;4.65;1.77;;;;;;;;;;5101942;28;20044;-67
2022/11/08 09:48:54;;;;;;;3.00;1.70;;;;;;;;;;5101745;28;20056;-66
2022/11/08 09:51:22;;;;;;;3.65;1.83;;;;;;;;;;5102347;28;20050;-66
2022/11/08 09:53:57;;;;;;;4.28;1.85;;;;;;;;;;5100389;28;20062;-67
2022/11/08 09:56:30;;;;;;;2.78;1.48;;;;;;;;;;5098128;28;20525;-65
2022/11/08 09:59:00;;;;;;;4.15;1.60;;;;;;;;;;5092765;28;20049;-66
2022/11/08 10:01:32;;;;;;;2.42;1.30;;;;;;;;;;5100919;28;20055;-65
2022/11/08 10:04:00;;;;;;;3.72;1.70;;;;;;;;;;5098381;28;20621;-65
2022/11/08 10:06:30;;;;;;;6.80;1.88;;;;;;;;;;5080655;28;20049;-66
2022/11/08 10:09:25;;;;;;;5.20;2.40;;;;;;;;;;5084039;28;20083;-65
2022/11/08 10:12:04;;;;;;;4.00;1.40;;;;;;;;;;5069074;28;20048;-65
2022/11/08 10:14:37;;;;;;;3.40;1.60;;;;;;;;;;5099731;28;20756;-65
2022/11/08 10:17:14;;;;;;;2.10;1.75;;;;;;;;;;5098725;28;20421;-65
2022/11/08 10:19:50;;;;;;;7.75;2.05;;;;;;;;;;5099473;28;20056;-66
2022/11/08 10:22:23;;;;;;;2.25;1.63;;;;;;;;;;5098928;28;20048;-66
2022/11/08 10:24:55;;;;;;;2.20;1.27;;;;;;;;;;5098303;28;20052;-66
2022/11/08 10:27:25;;;;;;;5.03;2.22;;;;;;;;;;5099652;28;20565;-66
2022/11/08 10:29:54;;;;;;;4.30;1.65;;;;;;;;;;5100856;28;20056;-67
2022/11/08 10:32:21;;;;;;;1.88;1.35;;;;;;;;;;5100441;28;20102;-66
2022/11/08 10:34:50;;;;;;;4.05;1.40;;;;;;;;;;5100914;28;20106;-67
2022/11/08 10:37:16;;;;;;;1.73;1.40;;;;;;;;;;5100371;28;20044;-68
2022/11/08 10:39:50;;;;;;;2.92;1.25;;;;;;;;;;5081468;28;20593;-67
2022/11/08 10:42:22;;;;;;;5.20;1.63;;;;;;;;;;5094668;28;20048;-67
2022/11/08 10:44:49;;;;;;;4.80;1.52;;;;;;;;;;5095654;28;20045;-67
2022/11/08 10:47:19;;;;;;;2.15;1.55;;;;;;;;;;5100853;28;20060;-67
2022/11/08 10:49:45;;;;;;;3.75;2.05;;;;;;;;;;5101921;27;20496;-67
2022/11/08 10:52:21;;;;;;;3.50;1.30;;;;;;;;;;5092797;28;20148;-67
2022/11/08 10:54:52;;;;;;;2.63;1.33;;;;;;;;;;5098716;28;20054;-67
2022/11/08 10:57:30;;;;;;;2.17;1.38;;;;;;;;;;5065738;28;20473;-67
2022/11/08 11:00:14;;;;;;;3.90;1.60;;;;;;;;;;5087688;28;20191;-67
2022/11/08 11:02:41;;;;;;;3.95;1.40;;;;;;;;;;5102926;28;20504;-66
2022/11/08 11:05:14;;;;;;;2.65;1.45;;;;;;;;;;5097876;28;20056;-67
2022/11/08 11:07:43;;;;;;;9.32;1.20;;;;;;;;;;5104497;28;20055;-66
2022/11/08 11:10:26;;;;;;;1.95;1.30;;;;;;;;;;5104312;28;20052;-66
2022/11/08 11:13:04;;;;;;;2.78;1.50;;;;;;;;;;5102983;28;20087;-66
2022/11/08 11:15:35;;;;;;;3.67;1.30;;;;;;;;;;5104064;28;20052;-66
2022/11/08 11:18:02;;;;;;;1.85;1.30;;;;;;;;;;5099413;28;20091;-66
2022/11/08 11:20:30;;;;;;;2.78;1.27;;;;;;;;;;5102224;28;20119;-66
2022/11/08 11:22:57;;;;;;;3.47;1.73;;;;;;;;;;5104235;28;20097;-66
2022/11/08 11:25:23;;;;;;;6.55;1.60;;;;;;;;;;5102942;28;20426;-66
2022/11/08 11:27:57;;;;;;;4.82;1.40;;;;;;;;;;5095438;28;20052;-66
2022/11/08 11:30:32;;;;;;;2.95;1.10;;;;;;;;;;5099059;28;20098;-68
2022/11/08 11:32:58;;;;;;;2.73;1.50;;;;;;;;;;5094447;28;20058;-67
2022/11/08 11:35:27;;;;;;;4.78;1.40;;;;;;;;;;5083204;28;20264;-67
2022/11/08 11:37:55;;;;;;;3.25;1.23;;;;;;;;;;5089550;28;20076;-67
2022/11/08 11:40:28;;;;;;;4.03;1.20;;;;;;;;;;5099525;28;20124;-67
2022/11/08 11:43:05;;;;;;;3.63;1.58;;;;;;;;;;5093789;28;20052;-66
2022/11/08 11:45:37;;;;;;;4.43;1.40;;;;;;;;;;5100128;28;20062;-66
2022/11/08 11:48:10;;;;;;;4.45;1.70;;;;;;;;;;5092778;28;20055;-66
2022/11/08 11:50:37;;;;;;;3.67;1.55;;;;;;;;;;5101697;28;20055;-66
2022/11/08 11:53:21;;;;;;;4.40;1.73;;;;;;;;;;5085342;27;20059;-67
2022/11/08 11:55:52;;;;;;;3.05;1.63;;;;;;;;;;5089675;28;20055;-67
2022/11/08 11:58:28;;;;;;;2.83;1.50;;;;;;;;;;5098441;28;20130;-67
2022/11/08 12:00:58;;;;;;;2.47;1.67;;;;;;;;;;5099794;27;20052;-66
2022/11/08 12:03:57;;;;;;;2.63;1.38;;;;;;;;;;5101601;28;20079;-66
2022/11/08 12:06:38;;;;;;;3.00;2.10;;;;;;;;;;4998346;28;20050;-66
2022/11/08 12:09:15;;;;;;;4.05;1.45;;;;;;;;;;4997763;28;20062;-66
2022/11/08 12:11:44;;;;;;;3.40;1.60;;;;;;;;;;4979890;28;20043;-67
2022/11/08 12:14:30;;;;;;;2.65;1.60;;;;;;;;;;4999629;28;20057;-66
2022/11/08 12:16:56;;;;;;;6.07;1.80;;;;;;;;;;4999664;28;20065;-66
2022/11/08 12:19:30;;;;;;;3.63;1.55;;;;;;;;;;5001464;28;20065;-67
2022/11/08 12:21:56;;;;;;;5.13;1.38;;;;;;;;;;4994936;28;20054;-66
2022/11/08 12:24:28;;;;;;;3.33;1.52;;;;;;;;;;4995063;28;20058;-66
2022/11/08 12:26:54;;;;;;;6.45;1.80;;;;;;;;;;4999680;28;20054;-67
2022/11/08 12:29:25;;;;;;;6.45;2.15;;;;;;;;;;5000426;28;20058;-67
2022/11/08 12:32:03;;;;;;;3.15;1.50;;;;;;;;;;4993867;28;20061;-66
2022/11/08 12:34:45;;;;;;;6.45;1.52;;;;;;;;;;5000014;28;20575;-66
2022/11/08 12:37:27;;;;;;;4.70;1.77;;;;;;;;;;4994976;28;20081;-66
2022/11/08 12:40:01;;;;;;;4.80;1.65;;;;;;;;;;4992804;28;20270;-66
2022/11/08 12:42:31;;;;;;;1.95;1.30;;;;;;;;;;5064614;28;20044;-67
2022/11/08 12:45:06;;;;;;;3.17;1.42;;;;;;;;;;5102362;28;20052;-66
2022/11/08 12:47:33;;;;;;;;;;;;;;;;;;5100758;28;20178;-67
2022/11/08 12:50:11;;;;;;;4.20;1.80;;;;;;;;;;5099350;28;45733;-66
2022/11/08 12:53:03;;;;;;;2.22;1.50;;;;;;;;;;5088333;28;20044;-67
2022/11/08 12:55:36;;;;;;;3.20;1.58;;;;;;;;;;5059244;28;20473;-68
2022/11/08 12:58:24;;;;;;;6.63;2.08;;;;;;;;;;5100028;28;20048;-66
2022/11/08 13:00:51;;;;;;;3.80;1.75;;;;;;;;;;5097907;28;20052;-66
2022/11/08 13:03:27;;;;;;;3.65;1.30;;;;;;;;;;5103501;28;20066;-66
2022/11/08 13:06:01;;;;;;;1.90;1.40;;;;;;;;;;5083751;28;20777;-66
2022/11/08 13:08:34;;;;;;;4.47;2.25;;;;;;;;;;5097077;28;20052;-66
2022/11/08 13:11:10;;;;;;;1.95;1.10;;;;;;;;;;5098967;28;20052;-66
2022/11/08 13:13:36;;;;;;;2.55;1.52;;;;;;;;;;5102154;27;20052;-66
2022/11/08 13:16:13;;;;;;;5.07;1.58;;;;;;;;;;5099498;28;20052;-65
2022/11/08 13:18:50;;;;;;;7.35;1.50;;;;;;;;;;5104110;28;20063;-67
2022/11/08 13:21:38;;;;;;;4.95;1.20;;;;;;;;;;5101827;28;20866;-66
2022/11/08 13:24:04;;;;;;;7.03;1.75;;;;;;;;;;5084477;28;20050;-66
2022/11/08 13:26:49;;;;;;;5.88;1.63;;;;;;;;;;5099588;27;20344;-66
2022/11/08 13:29:18;;;;;;;2.17;1.45;;;;;;;;;;5101051;28;20058;-66
2022/11/08 13:31:50;;;;;;;4.63;1.40;;;;;;;;;;5101545;28;20125;-66
2022/11/08 13:34:19;;;;;;;2.03;1.10;;;;;;;;;;5101042;28;20048;-66
2022/11/08 13:37:08;;;;;;;2.88;1.40;;;;;;;;;;5101142;28;20056;-68
2022/11/08 13:39:46;;;;;;;2.75;1.50;;;;;;;;;;5100681;28;20048;-66
2022/11/08 13:42:15;;;;;;;3.92;1.55;;;;;;;;;;5098594;28;20044;-66
2022/11/08 13:44:53;;;;;;;4.78;1.50;;;;;;;;;;5100713;28;20052;-66
2022/11/08 13:47:32;;;;;;;3.47;1.40;;;;;;;;;;5102789;28;20051;-66
2022/11/08 13:50:17;;;;;;;5.63;1.42;;;;;;;;;;5097735;28;20055;-66
2022/11/08 13:52:45;;;;;;;4.10;1.50;;;;;;;;;;5091084;28;20052;-67
2022/11/08 13:55:29;;;;;;;5.55;1.65;;;;;;;;;;5099394;28;20044;-66
2022/11/08 13:57:58;;;;;;;2.78;1.50;;;;;;;;;;5101551;28;20040;-67
2022/11/08 14:00:32;;;;;;;2.97;1.35;;;;;;;;;;5099828;28;20060;-67
2022/11/08 14:02:58;;;;;;;4.88;1.70;;;;;;;;;;5084297;28;20052;-66
2022/11/08 14:05:25;;;;;;;4.68;1.77;;;;;;;;;;5098510;28;20055;-65
2022/11/08 14:08:07;;;;;;;4.45;2.00;;;;;;;;;;5101411;28;20529;-66
2022/11/08 14:10:38;;;;;;;2.70;1.70;;;;;;;;;;5094353;28;20498;-66
2022/11/08 14:13:13;;;;;;;3.67;1.80;;;;;;;;;;5094636;28;20051;-66
2022/11/08 14:15:52;;;;;;;4.40;2.13;;;;;;;;;;5101844;27;20048;-65
2022/11/08 14:18:23;;;;;;;2.95;1.33;;;;;;;;;;5095491;28;20186;-66
2022/11/08 14:20:49;;;;;;;2.58;1.60;;;;;;;;;;5080559;28;20335;-66
2022/11/08 14:23:15;;;;;;;3.55;1.40;;;;;;;;;;5089571;28;20529;-66
2022/11/08 14:25:46;;;;;;;3.70;2.03;;;;;;;;;;5101711;27;20136;-66
2022/11/08 14:28:20;;;;;;;3.58;2.10;;;;;;;;;;5104194;28;20052;-66
2022/11/08 14:30:47;;;;;;;3.35;1.50;;;;;;;;;;5104897;28;20048;-66
2022/11/08 14:33:17;;;;;;;3.92;1.63;;;;;;;;;;5103742;28;20071;-65
2022/11/08 14:35:56;;;;;;;3.15;1.67;;;;;;;;;;5101935;28;20048;-65
2022/11/08 14:38:23;;;;;;;3.97;2.03;;;;;;;;;;5096575;28;20494;-65
2022/11/08 14:40:59;;;;;;;5.70;1.70;;;;;;;;;;5100203;28;20056;-66
2022/11/08 14:43:26;;;;;;;9.75;1.90;;;;;;;;;;5087569;28;20136;-65
2022/11/08 14:45:52;;;;;;;7.13;2.00;;;;;;;;;;5092960;28;20472;-65
2022/11/08 14:48:28;;;;;;;5.30;1.70;;;;;;;;;;5104498;28;20109;-65
2022/11/08 14:51:02;;;;;;;2.90;1.40;;;;;;;;;;5103337;28;20395;-66
2022/11/08 14:53:30;;;;;;;3.50;1.33;;;;;;;;;;5103132;28;20126;-66
2022/11/08 14:56:12;;;;;;;5.18;1.80;;;;;;;;;;5084350;28;20045;-66
2022/11/08 14:58:38;;;;;;;3.22;1.80;;;;;;;;;;5103553;28;20514;-66
2022/11/08 15:01:05;;;;;;;3.85;1.70;;;;;;;;;;5086250;28;20515;-66
2022/11/08 15:03:32;;;;;;;4.18;2.22;;;;;;;;;;5103349;28;20059;-66
2022/11/08 15:06:00;;;;;;;4.18;1.70;;;;;;;;;;5103187;28;20166;-66
2022/11/08 15:08:26;;;;;;;3.70;1.70;;;;;;;;;;5101234;28;20056;-66
2022/11/08 15:11:03;;;;;;;3.47;1.60;;;;;;;;;;5096372;28;20065;-66
2022/11/08 15:13:31;;;;;;;2.85;1.90;;;;;;;;;;5088572;28;20501;-66
2022/11/08 15:16:02;;;;;;;3.78;1.70;;;;;;;;;;5101398;28;20521;-67